sensor_id;sensor_type;location;lat;lon;timestamp;P1;durP1;ratioP1;P2;durP2;ratioP2
71174;SDS011;58876;51.994;4.472;2023-07-13T00:02:23;6.56;;;5.44;;
71174;SDS011;58876;51.994;4.472;2023-07-13T00:04:49;6.88;;;5.67;;
71174;SDS011;58876;51.994;4.472;2023-07-13T00:07:15;6.27;;;5.16;;
71174;SDS011;58876;51.994;4.472;2023-07-13T00:09:41;6.50;;;5.39;;
71174;SDS011;58876;51.994;4.472;2023-07-13T00:12:21;6.62;;;5.48;;
71174;SDS011;58876;51.994;4.472;2023-07-13T00:14:49;6.03;;;4.94;;
71174;SDS011;58876;51.994;4.472;2023-07-13T00:17:15;6.45;;;5.04;;
71174;SDS011;58876;51.994;4.472;2023-07-13T00:19:41;6.29;;;4.93;;
71174;SDS011;58876;51.994;4.472;2023-07-13T00:22:06;6.04;;;4.91;;
71174;SDS011;58876;51.994;4.472;2023-07-13T00:24:32;5.73;;;4.71;;
71174;SDS011;58876;51.994;4.472;2023-07-13T00:26:57;5.56;;;4.60;;
71174;SDS011;58876;51.994;4.472;2023-07-13T00:29:23;5.37;;;4.41;;
71174;SDS011;58876;51.994;4.472;2023-07-13T00:31:48;5.43;;;4.48;;
71174;SDS011;58876;51.994;4.472;2023-07-13T00:34:14;6.00;;;4.84;;
71174;SDS011;58876;51.994;4.472;2023-07-13T00:36:39;5.40;;;4.36;;
71174;SDS011;58876;51.994;4.472;2023-07-13T00:39:05;6.12;;;4.80;;
71174;SDS011;58876;51.994;4.472;2023-07-13T00:41:31;5.08;;;4.11;;
71174;SDS011;58876;51.994;4.472;2023-07-13T00:43:57;5.47;;;4.44;;
71174;SDS011;58876;51.994;4.472;2023-07-13T00:46:26;5.49;;;4.45;;
71174;SDS011;58876;51.994;4.472;2023-07-13T00:48:55;5.78;;;4.61;;
71174;SDS011;58876;51.994;4.472;2023-07-13T00:51:26;6.07;;;4.75;;
71174;SDS011;58876;51.994;4.472;2023-07-13T00:53:59;5.78;;;4.44;;
71174;SDS011;58876;51.994;4.472;2023-07-13T00:56:29;6.30;;;4.87;;
71174;SDS011;58876;51.994;4.472;2023-07-13T00:58:57;5.63;;;4.52;;
71174;SDS011;58876;51.994;4.472;2023-07-13T01:01:25;5.46;;;4.38;;
71174;SDS011;58876;51.994;4.472;2023-07-13T01:03:52;5.78;;;4.57;;
71174;SDS011;58876;51.994;4.472;2023-07-13T01:06:19;6.27;;;4.90;;
71174;SDS011;58876;51.994;4.472;2023-07-13T01:08:45;5.57;;;4.40;;
71174;SDS011;58876;51.994;4.472;2023-07-13T01:11:10;5.23;;;4.23;;
71174;SDS011;58876;51.994;4.472;2023-07-13T01:13:36;5.23;;;4.25;;
71174;SDS011;58876;51.994;4.472;2023-07-13T01:16:03;5.93;;;4.59;;
71174;SDS011;58876;51.994;4.472;2023-07-13T01:18:38;6.17;;;4.70;;
71174;SDS011;58876;51.994;4.472;2023-07-13T01:21:04;5.44;;;4.21;;
71174;SDS011;58876;51.994;4.472;2023-07-13T01:23:31;4.74;;;3.78;;
71174;SDS011;58876;51.994;4.472;2023-07-13T01:25:57;4.55;;;3.61;;
71174;SDS011;58876;51.994;4.472;2023-07-13T01:28:25;4.27;;;3.52;;
71174;SDS011;58876;51.994;4.472;2023-07-13T01:30:55;3.83;;;3.14;;
71174;SDS011;58876;51.994;4.472;2023-07-13T01:33:23;3.64;;;2.99;;
71174;SDS011;58876;51.994;4.472;2023-07-13T01:35:49;3.55;;;2.97;;
71174;SDS011;58876;51.994;4.472;2023-07-13T01:38:15;3.56;;;2.99;;
71174;SDS011;58876;51.994;4.472;2023-07-13T01:40:42;3.23;;;2.64;;
71174;SDS011;58876;51.994;4.472;2023-07-13T01:43:08;3.16;;;2.64;;
71174;SDS011;58876;51.994;4.472;2023-07-13T01:45:34;2.73;;;2.28;;
71174;SDS011;58876;51.994;4.472;2023-07-13T01:47:59;2.83;;;2.41;;
71174;SDS011;58876;51.994;4.472;2023-07-13T01:50:25;2.61;;;2.18;;
71174;SDS011;58876;51.994;4.472;2023-07-13T01:52:51;2.59;;;2.19;;
71174;SDS011;58876;51.994;4.472;2023-07-13T01:55:16;2.45;;;2.09;;
71174;SDS011;58876;51.994;4.472;2023-07-13T01:57:42;2.15;;;1.84;;
71174;SDS011;58876;51.994;4.472;2023-07-13T02:00:08;2.13;;;1.84;;
71174;SDS011;58876;51.994;4.472;2023-07-13T02:02:36;2.15;;;1.87;;
71174;SDS011;58876;51.994;4.472;2023-07-13T02:05:01;2.00;;;1.74;;
71174;SDS011;58876;51.994;4.472;2023-07-13T02:07:27;2.34;;;2.02;;
71174;SDS011;58876;51.994;4.472;2023-07-13T02:09:53;2.35;;;2.06;;
71174;SDS011;58876;51.994;4.472;2023-07-13T02:12:19;2.64;;;2.37;;
71174;SDS011;58876;51.994;4.472;2023-07-13T02:14:44;2.48;;;2.22;;
71174;SDS011;58876;51.994;4.472;2023-07-13T02:17:10;2.39;;;2.12;;
71174;SDS011;58876;51.994;4.472;2023-07-13T02:19:36;2.76;;;2.46;;
71174;SDS011;58876;51.994;4.472;2023-07-13T02:22:01;3.25;;;2.84;;
71174;SDS011;58876;51.994;4.472;2023-07-13T02:24:27;3.69;;;3.09;;
71174;SDS011;58876;51.994;4.472;2023-07-13T02:26:53;3.82;;;3.19;;
71174;SDS011;58876;51.994;4.472;2023-07-13T02:29:18;3.96;;;3.25;;
71174;SDS011;58876;51.994;4.472;2023-07-13T02:31:44;5.00;;;4.00;;
71174;SDS011;58876;51.994;4.472;2023-07-13T02:34:09;4.89;;;3.90;;
71174;SDS011;58876;51.994;4.472;2023-07-13T02:36:35;4.72;;;3.73;;
71174;SDS011;58876;51.994;4.472;2023-07-13T02:39:01;5.25;;;4.15;;
71174;SDS011;58876;51.994;4.472;2023-07-13T02:41:28;4.48;;;3.61;;
71174;SDS011;58876;51.994;4.472;2023-07-13T02:43:54;5.11;;;4.09;;
71174;SDS011;58876;51.994;4.472;2023-07-13T02:46:28;5.29;;;4.20;;
71174;SDS011;58876;51.994;4.472;2023-07-13T02:48:57;5.24;;;4.14;;
71174;SDS011;58876;51.994;4.472;2023-07-13T02:51:23;5.40;;;4.27;;
71174;SDS011;58876;51.994;4.472;2023-07-13T02:53:48;6.08;;;4.82;;
71174;SDS011;58876;51.994;4.472;2023-07-13T02:56:14;5.71;;;4.55;;
71174;SDS011;58876;51.994;4.472;2023-07-13T02:58:39;5.36;;;4.30;;
71174;SDS011;58876;51.994;4.472;2023-07-13T03:01:08;5.74;;;4.53;;
71174;SDS011;58876;51.994;4.472;2023-07-13T03:03:36;5.77;;;4.60;;
71174;SDS011;58876;51.994;4.472;2023-07-13T03:06:03;5.95;;;4.83;;
71174;SDS011;58876;51.994;4.472;2023-07-13T03:08:30;5.60;;;4.49;;
71174;SDS011;58876;51.994;4.472;2023-07-13T03:11:06;5.37;;;4.31;;
71174;SDS011;58876;51.994;4.472;2023-07-13T03:13:36;5.84;;;4.78;;
71174;SDS011;58876;51.994;4.472;2023-07-13T03:16:03;5.84;;;4.79;;
71174;SDS011;58876;51.994;4.472;2023-07-13T03:18:29;5.82;;;4.67;;
71174;SDS011;58876;51.994;4.472;2023-07-13T03:20:55;5.32;;;4.49;;
71174;SDS011;58876;51.994;4.472;2023-07-13T03:23:21;5.14;;;4.22;;
71174;SDS011;58876;51.994;4.472;2023-07-13T03:25:48;5.95;;;4.64;;
71174;SDS011;58876;51.994;4.472;2023-07-13T03:28:14;6.28;;;4.93;;
71174;SDS011;58876;51.994;4.472;2023-07-13T03:30:40;6.25;;;4.84;;
71174;SDS011;58876;51.994;4.472;2023-07-13T03:33:06;6.44;;;5.09;;
71174;SDS011;58876;51.994;4.472;2023-07-13T03:35:32;5.44;;;4.40;;
71174;SDS011;58876;51.994;4.472;2023-07-13T03:38:00;5.35;;;4.27;;
71174;SDS011;58876;51.994;4.472;2023-07-13T03:40:27;6.59;;;4.95;;
71174;SDS011;58876;51.994;4.472;2023-07-13T03:42:53;6.96;;;5.30;;
71174;SDS011;58876;51.994;4.472;2023-07-13T03:45:19;6.00;;;4.73;;
71174;SDS011;58876;51.994;4.472;2023-07-13T03:47:45;5.73;;;4.63;;
71174;SDS011;58876;51.994;4.472;2023-07-13T03:50:10;4.93;;;4.09;;
71174;SDS011;58876;51.994;4.472;2023-07-13T03:52:36;5.94;;;4.73;;
71174;SDS011;58876;51.994;4.472;2023-07-13T03:55:02;6.09;;;4.76;;
71174;SDS011;58876;51.994;4.472;2023-07-13T03:57:28;5.72;;;4.59;;
71174;SDS011;58876;51.994;4.472;2023-07-13T03:59:53;5.91;;;4.68;;
71174;SDS011;58876;51.994;4.472;2023-07-13T04:02:20;5.74;;;4.59;;
71174;SDS011;58876;51.994;4.472;2023-07-13T04:04:46;5.13;;;4.16;;
71174;SDS011;58876;51.994;4.472;2023-07-13T04:07:11;4.90;;;3.95;;
71174;SDS011;58876;51.994;4.472;2023-07-13T04:09:37;5.32;;;4.24;;
71174;SDS011;58876;51.994;4.472;2023-07-13T04:12:03;5.06;;;4.17;;
71174;SDS011;58876;51.994;4.472;2023-07-13T04:14:29;4.94;;;4.07;;
71174;SDS011;58876;51.994;4.472;2023-07-13T04:16:54;4.95;;;4.09;;
71174;SDS011;58876;51.994;4.472;2023-07-13T04:19:20;4.94;;;4.10;;
71174;SDS011;58876;51.994;4.472;2023-07-13T04:21:46;5.56;;;4.54;;
71174;SDS011;58876;51.994;4.472;2023-07-13T04:24:12;4.92;;;4.07;;
71174;SDS011;58876;51.994;4.472;2023-07-13T04:26:38;4.46;;;3.74;;
71174;SDS011;58876;51.994;4.472;2023-07-13T04:29:04;4.67;;;3.92;;
71174;SDS011;58876;51.994;4.472;2023-07-13T04:31:30;4.92;;;4.17;;
71174;SDS011;58876;51.994;4.472;2023-07-13T04:33:57;4.98;;;4.26;;
71174;SDS011;58876;51.994;4.472;2023-07-13T04:36:23;4.79;;;4.14;;
71174;SDS011;58876;51.994;4.472;2023-07-13T04:38:52;4.48;;;3.84;;
71174;SDS011;58876;51.994;4.472;2023-07-13T04:41:20;4.33;;;3.78;;
71174;SDS011;58876;51.994;4.472;2023-07-13T04:43:46;4.26;;;3.85;;
71174;SDS011;58876;51.994;4.472;2023-07-13T04:46:13;4.25;;;3.70;;
71174;SDS011;58876;51.994;4.472;2023-07-13T04:48:40;4.26;;;3.72;;
71174;SDS011;58876;51.994;4.472;2023-07-13T04:51:06;3.89;;;3.43;;
71174;SDS011;58876;51.994;4.472;2023-07-13T04:53:32;4.21;;;3.77;;
71174;SDS011;58876;51.994;4.472;2023-07-13T04:55:59;3.75;;;3.42;;
71174;SDS011;58876;51.994;4.472;2023-07-13T04:58:25;3.84;;;3.48;;
71174;SDS011;58876;51.994;4.472;2023-07-13T05:00:51;3.57;;;3.24;;
71174;SDS011;58876;51.994;4.472;2023-07-13T05:03:17;3.82;;;3.48;;
71174;SDS011;58876;51.994;4.472;2023-07-13T05:05:42;3.86;;;3.48;;
71174;SDS011;58876;51.994;4.472;2023-07-13T05:08:08;3.74;;;3.37;;
71174;SDS011;58876;51.994;4.472;2023-07-13T05:10:34;3.99;;;3.61;;
71174;SDS011;58876;51.994;4.472;2023-07-13T05:13:01;3.58;;;3.23;;
71174;SDS011;58876;51.994;4.472;2023-07-13T05:15:26;3.37;;;3.10;;
71174;SDS011;58876;51.994;4.472;2023-07-13T05:17:52;3.44;;;3.27;;
71174;SDS011;58876;51.994;4.472;2023-07-13T05:20:18;3.14;;;2.97;;
71174;SDS011;58876;51.994;4.472;2023-07-13T05:22:44;3.37;;;3.19;;
71174;SDS011;58876;51.994;4.472;2023-07-13T05:25:12;3.34;;;3.21;;
71174;SDS011;58876;51.994;4.472;2023-07-13T05:27:38;3.28;;;3.10;;
71174;SDS011;58876;51.994;4.472;2023-07-13T05:30:04;3.68;;;3.45;;
71174;SDS011;58876;51.994;4.472;2023-07-13T05:32:30;3.41;;;3.18;;
71174;SDS011;58876;51.994;4.472;2023-07-13T05:34:55;3.12;;;2.94;;
71174;SDS011;58876;51.994;4.472;2023-07-13T05:37:21;3.30;;;3.29;;
71174;SDS011;58876;51.994;4.472;2023-07-13T05:39:46;3.42;;;3.37;;
71174;SDS011;58876;51.994;4.472;2023-07-13T05:42:12;3.23;;;3.22;;
71174;SDS011;58876;51.994;4.472;2023-07-13T05:44:38;3.10;;;3.01;;
71174;SDS011;58876;51.994;4.472;2023-07-13T05:47:03;3.42;;;3.26;;
71174;SDS011;58876;51.994;4.472;2023-07-13T05:49:29;3.36;;;3.24;;
71174;SDS011;58876;51.994;4.472;2023-07-13T05:51:55;2.92;;;2.92;;
71174;SDS011;58876;51.994;4.472;2023-07-13T05:54:21;3.15;;;3.14;;
71174;SDS011;58876;51.994;4.472;2023-07-13T05:56:47;3.16;;;3.16;;
71174;SDS011;58876;51.994;4.472;2023-07-13T05:59:12;4.09;;;4.09;;
71174;SDS011;58876;51.994;4.472;2023-07-13T06:01:38;3.11;;;3.11;;
71174;SDS011;58876;51.994;4.472;2023-07-13T06:04:04;3.63;;;3.63;;
71174;SDS011;58876;51.994;4.472;2023-07-13T06:06:29;3.69;;;3.69;;
71174;SDS011;58876;51.994;4.472;2023-07-13T06:08:55;3.78;;;3.78;;
71174;SDS011;58876;51.994;4.472;2023-07-13T06:11:21;3.15;;;3.15;;
71174;SDS011;58876;51.994;4.472;2023-07-13T06:13:49;3.86;;;3.86;;
71174;SDS011;58876;51.994;4.472;2023-07-13T06:16:15;7.35;;;7.35;;
71174;SDS011;58876;51.994;4.472;2023-07-13T06:18:41;3.64;;;3.64;;
71174;SDS011;58876;51.994;4.472;2023-07-13T06:21:11;3.07;;;3.07;;
71174;SDS011;58876;51.994;4.472;2023-07-13T06:23:41;3.44;;;3.44;;
71174;SDS011;58876;51.994;4.472;2023-07-13T06:26:08;3.11;;;3.11;;
71174;SDS011;58876;51.994;4.472;2023-07-13T06:28:34;2.96;;;2.96;;
71174;SDS011;58876;51.994;4.472;2023-07-13T06:31:01;2.96;;;2.96;;
71174;SDS011;58876;51.994;4.472;2023-07-13T06:33:26;2.89;;;2.89;;
71174;SDS011;58876;51.994;4.472;2023-07-13T06:35:52;3.35;;;3.35;;
71174;SDS011;58876;51.994;4.472;2023-07-13T06:38:20;3.06;;;3.06;;
71174;SDS011;58876;51.994;4.472;2023-07-13T06:40:45;3.06;;;3.06;;
71174;SDS011;58876;51.994;4.472;2023-07-13T06:43:11;3.40;;;3.40;;
71174;SDS011;58876;51.994;4.472;2023-07-13T06:45:40;3.18;;;3.17;;
71174;SDS011;58876;51.994;4.472;2023-07-13T06:48:10;3.16;;;3.15;;
71174;SDS011;58876;51.994;4.472;2023-07-13T06:50:36;3.47;;;3.47;;
71174;SDS011;58876;51.994;4.472;2023-07-13T06:53:02;3.16;;;3.16;;
71174;SDS011;58876;51.994;4.472;2023-07-13T06:55:28;2.87;;;2.87;;
71174;SDS011;58876;51.994;4.472;2023-07-13T06:57:53;2.96;;;2.96;;
71174;SDS011;58876;51.994;4.472;2023-07-13T07:00:19;2.95;;;2.95;;
71174;SDS011;58876;51.994;4.472;2023-07-13T07:02:45;3.04;;;3.04;;
71174;SDS011;58876;51.994;4.472;2023-07-13T07:05:10;3.25;;;3.25;;
71174;SDS011;58876;51.994;4.472;2023-07-13T07:07:36;2.86;;;2.86;;
71174;SDS011;58876;51.994;4.472;2023-07-13T07:10:01;3.21;;;3.21;;
71174;SDS011;58876;51.994;4.472;2023-07-13T07:12:28;3.26;;;3.25;;
71174;SDS011;58876;51.994;4.472;2023-07-13T07:14:53;3.46;;;3.43;;
71174;SDS011;58876;51.994;4.472;2023-07-13T07:17:19;3.40;;;3.37;;
71174;SDS011;58876;51.994;4.472;2023-07-13T07:19:45;3.41;;;3.39;;
71174;SDS011;58876;51.994;4.472;2023-07-13T07:22:10;3.19;;;3.13;;
71174;SDS011;58876;51.994;4.472;2023-07-13T07:24:36;3.16;;;3.16;;
71174;SDS011;58876;51.994;4.472;2023-07-13T07:27:01;3.35;;;3.35;;
71174;SDS011;58876;51.994;4.472;2023-07-13T07:29:27;3.04;;;3.04;;
71174;SDS011;58876;51.994;4.472;2023-07-13T07:31:53;3.10;;;3.10;;
71174;SDS011;58876;51.994;4.472;2023-07-13T07:34:19;3.28;;;3.28;;
71174;SDS011;58876;51.994;4.472;2023-07-13T07:36:44;3.17;;;3.17;;
71174;SDS011;58876;51.994;4.472;2023-07-13T07:39:10;3.31;;;3.29;;
71174;SDS011;58876;51.994;4.472;2023-07-13T07:41:36;3.18;;;3.17;;
71174;SDS011;58876;51.994;4.472;2023-07-13T07:44:02;3.20;;;3.20;;
71174;SDS011;58876;51.994;4.472;2023-07-13T07:46:28;3.34;;;3.34;;
71174;SDS011;58876;51.994;4.472;2023-07-13T07:48:55;3.41;;;3.41;;
71174;SDS011;58876;51.994;4.472;2023-07-13T07:51:21;3.52;;;3.52;;
71174;SDS011;58876;51.994;4.472;2023-07-13T07:53:47;3.23;;;3.22;;
71174;SDS011;58876;51.994;4.472;2023-07-13T07:56:13;3.51;;;3.50;;
71174;SDS011;58876;51.994;4.472;2023-07-13T07:58:41;3.41;;;3.36;;
71174;SDS011;58876;51.994;4.472;2023-07-13T08:01:07;3.15;;;3.13;;
71174;SDS011;58876;51.994;4.472;2023-07-13T08:03:34;3.24;;;3.24;;
71174;SDS011;58876;51.994;4.472;2023-07-13T08:06:00;3.48;;;3.48;;
71174;SDS011;58876;51.994;4.472;2023-07-13T08:08:26;2.99;;;2.99;;
71174;SDS011;58876;51.994;4.472;2023-07-13T08:10:52;3.05;;;3.05;;
71174;SDS011;58876;51.994;4.472;2023-07-13T08:13:18;3.18;;;3.18;;
71174;SDS011;58876;51.994;4.472;2023-07-13T08:15:44;3.22;;;3.22;;
71174;SDS011;58876;51.994;4.472;2023-07-13T08:18:10;3.51;;;3.51;;
71174;SDS011;58876;51.994;4.472;2023-07-13T08:20:37;3.17;;;3.17;;
71174;SDS011;58876;51.994;4.472;2023-07-13T08:23:03;3.11;;;3.11;;
71174;SDS011;58876;51.994;4.472;2023-07-13T08:25:29;3.15;;;3.15;;
71174;SDS011;58876;51.994;4.472;2023-07-13T08:27:54;2.91;;;2.91;;
71174;SDS011;58876;51.994;4.472;2023-07-13T08:30:20;3.13;;;3.13;;
71174;SDS011;58876;51.994;4.472;2023-07-13T08:32:45;3.13;;;3.13;;
71174;SDS011;58876;51.994;4.472;2023-07-13T08:35:11;2.96;;;2.96;;
71174;SDS011;58876;51.994;4.472;2023-07-13T08:37:38;3.39;;;3.39;;
71174;SDS011;58876;51.994;4.472;2023-07-13T08:40:04;3.20;;;3.20;;
71174;SDS011;58876;51.994;4.472;2023-07-13T08:42:39;3.46;;;3.46;;
71174;SDS011;58876;51.994;4.472;2023-07-13T08:47:56;3.56;;;3.56;;
71174;SDS011;58876;51.994;4.472;2023-07-13T08:50:34;3.49;;;3.49;;
71174;SDS011;58876;51.994;4.472;2023-07-13T08:53:04;3.40;;;3.40;;
71174;SDS011;58876;51.994;4.472;2023-07-13T08:55:37;3.41;;;3.41;;
71174;SDS011;58876;51.994;4.472;2023-07-13T08:58:14;3.46;;;3.46;;
71174;SDS011;58876;51.994;4.472;2023-07-13T09:00:57;3.43;;;3.43;;
71174;SDS011;58876;51.994;4.472;2023-07-13T09:04:04;3.26;;;3.26;;
71174;SDS011;58876;51.994;4.472;2023-07-13T09:06:39;3.23;;;3.23;;
71174;SDS011;58876;51.994;4.472;2023-07-13T09:12:14;3.30;;;3.30;;
71174;SDS011;58876;51.994;4.472;2023-07-13T09:14:55;3.38;;;3.38;;
71174;SDS011;58876;51.994;4.472;2023-07-13T09:17:29;3.11;;;3.11;;
71174;SDS011;58876;51.994;4.472;2023-07-13T09:20:11;3.20;;;3.20;;
71174;SDS011;58876;51.994;4.472;2023-07-13T09:22:52;3.55;;;3.55;;
71174;SDS011;58876;51.994;4.472;2023-07-13T09:25:29;3.29;;;3.29;;
71174;SDS011;58876;51.994;4.472;2023-07-13T09:28:10;2.88;;;2.88;;
71174;SDS011;58876;51.994;4.472;2023-07-13T09:33:20;2.95;;;2.95;;
71174;SDS011;58876;51.994;4.472;2023-07-13T09:35:51;2.76;;;2.76;;
71174;SDS011;58876;51.994;4.472;2023-07-13T09:38:18;2.98;;;2.98;;
71174;SDS011;58876;51.994;4.472;2023-07-13T09:43:25;3.78;;;3.78;;
71174;SDS011;58876;51.994;4.472;2023-07-13T09:45:53;3.42;;;3.42;;
71174;SDS011;58876;51.994;4.472;2023-07-13T09:48:22;3.45;;;3.45;;
71174;SDS011;58876;51.994;4.472;2023-07-13T09:50:49;3.58;;;3.58;;
71174;SDS011;58876;51.994;4.472;2023-07-13T09:53:30;3.40;;;3.40;;
71174;SDS011;58876;51.994;4.472;2023-07-13T09:55:56;3.72;;;3.72;;
71174;SDS011;58876;51.994;4.472;2023-07-13T09:58:22;3.75;;;3.75;;
71174;SDS011;58876;51.994;4.472;2023-07-13T10:03:26;3.47;;;3.47;;
71174;SDS011;58876;51.994;4.472;2023-07-13T10:05:53;3.55;;;3.55;;
71174;SDS011;58876;51.994;4.472;2023-07-13T10:08:29;3.68;;;3.68;;
71174;SDS011;58876;51.994;4.472;2023-07-13T10:11:10;3.43;;;3.43;;
71174;SDS011;58876;51.994;4.472;2023-07-13T10:16:21;3.58;;;3.58;;
71174;SDS011;58876;51.994;4.472;2023-07-13T10:18:50;3.79;;;3.79;;
71174;SDS011;58876;51.994;4.472;2023-07-13T10:21:26;3.42;;;3.42;;
71174;SDS011;58876;51.994;4.472;2023-07-13T10:24:26;3.45;;;3.45;;
71174;SDS011;58876;51.994;4.472;2023-07-13T10:27:12;2.93;;;2.93;;
71174;SDS011;58876;51.994;4.472;2023-07-13T10:29:54;3.60;;;3.60;;
71174;SDS011;58876;51.994;4.472;2023-07-13T10:32:38;3.40;;;3.40;;
71174;SDS011;58876;51.994;4.472;2023-07-13T10:35:05;3.18;;;3.18;;
71174;SDS011;58876;51.994;4.472;2023-07-13T10:37:48;3.09;;;3.09;;
71174;SDS011;58876;51.994;4.472;2023-07-13T10:40:48;3.29;;;3.29;;
71174;SDS011;58876;51.994;4.472;2023-07-13T10:43:27;3.09;;;3.09;;
71174;SDS011;58876;51.994;4.472;2023-07-13T10:45:58;3.00;;;3.00;;
71174;SDS011;58876;51.994;4.472;2023-07-13T10:48:25;2.78;;;2.78;;
71174;SDS011;58876;51.994;4.472;2023-07-13T10:50:52;2.97;;;2.97;;
71174;SDS011;58876;51.994;4.472;2023-07-13T10:53:21;2.83;;;2.83;;
71174;SDS011;58876;51.994;4.472;2023-07-13T11:03:38;3.55;;;3.55;;
71174;SDS011;58876;51.994;4.472;2023-07-13T11:16:43;3.06;;;3.06;;
71174;SDS011;58876;51.994;4.472;2023-07-13T11:21:36;2.84;;;2.84;;
71174;SDS011;58876;51.994;4.472;2023-07-13T11:24:29;3.03;;;3.03;;
71174;SDS011;58876;51.994;4.472;2023-07-13T11:27:32;2.84;;;2.84;;
71174;SDS011;58876;51.994;4.472;2023-07-13T11:41:10;3.27;;;3.27;;
71174;SDS011;58876;51.994;4.472;2023-07-13T11:43:43;3.00;;;3.00;;
71174;SDS011;58876;51.994;4.472;2023-07-13T11:46:14;3.08;;;3.08;;
71174;SDS011;58876;51.994;4.472;2023-07-13T11:48:41;3.01;;;3.01;;
71174;SDS011;58876;51.994;4.472;2023-07-13T11:51:13;3.29;;;3.29;;
71174;SDS011;58876;51.994;4.472;2023-07-13T11:53:46;3.08;;;3.08;;
71174;SDS011;58876;51.994;4.472;2023-07-13T11:56:14;3.20;;;3.20;;
71174;SDS011;58876;51.994;4.472;2023-07-13T11:58:40;3.07;;;3.07;;
71174;SDS011;58876;51.994;4.472;2023-07-13T12:01:10;3.12;;;3.12;;
71174;SDS011;58876;51.994;4.472;2023-07-13T12:03:43;2.85;;;2.85;;
71174;SDS011;58876;51.994;4.472;2023-07-13T12:06:28;2.80;;;2.80;;
71174;SDS011;58876;51.994;4.472;2023-07-13T12:08:59;2.88;;;2.88;;
71174;SDS011;58876;51.994;4.472;2023-07-13T12:11:28;2.76;;;2.76;;
71174;SDS011;58876;51.994;4.472;2023-07-13T12:13:55;2.95;;;2.95;;
71174;SDS011;58876;51.994;4.472;2023-07-13T12:18:47;3.34;;;3.34;;
71174;SDS011;58876;51.994;4.472;2023-07-13T12:21:16;3.16;;;3.16;;
71174;SDS011;58876;51.994;4.472;2023-07-13T12:23:44;3.11;;;3.11;;
71174;SDS011;58876;51.994;4.472;2023-07-13T12:26:14;2.97;;;2.97;;
71174;SDS011;58876;51.994;4.472;2023-07-13T12:28:51;2.67;;;2.67;;
71174;SDS011;58876;51.994;4.472;2023-07-13T12:34:13;3.02;;;3.02;;
71174;SDS011;58876;51.994;4.472;2023-07-13T12:36:48;2.83;;;2.83;;
71174;SDS011;58876;51.994;4.472;2023-07-13T12:39:33;2.38;;;2.38;;
71174;SDS011;58876;51.994;4.472;2023-07-13T12:47:49;2.42;;;2.42;;
71174;SDS011;58876;51.994;4.472;2023-07-13T12:50:21;2.44;;;2.44;;
71174;SDS011;58876;51.994;4.472;2023-07-13T12:52:56;12.13;;;12.13;;
71174;SDS011;58876;51.994;4.472;2023-07-13T12:55:39;49.65;;;49.65;;
71174;SDS011;58876;51.994;4.472;2023-07-13T12:58:21;4.08;;;4.08;;
71174;SDS011;58876;51.994;4.472;2023-07-13T13:00:53;42.66;;;42.66;;
71174;SDS011;58876;51.994;4.472;2023-07-13T13:03:24;2.54;;;2.54;;
71174;SDS011;58876;51.994;4.472;2023-07-13T13:06:01;2.16;;;2.16;;
71174;SDS011;58876;51.994;4.472;2023-07-13T13:08:29;43.68;;;43.68;;
71174;SDS011;58876;51.994;4.472;2023-07-13T13:10:55;13.66;;;13.66;;
71174;SDS011;58876;51.994;4.472;2023-07-13T13:13:21;406.87;;;406.87;;
71174;SDS011;58876;51.994;4.472;2023-07-13T13:15:47;45.20;;;45.20;;
71174;SDS011;58876;51.994;4.472;2023-07-13T13:18:16;2.10;;;2.10;;
71174;SDS011;58876;51.994;4.472;2023-07-13T13:20:48;2.28;;;2.28;;
71174;SDS011;58876;51.994;4.472;2023-07-13T13:23:18;2.27;;;2.27;;
71174;SDS011;58876;51.994;4.472;2023-07-13T13:25:46;2.24;;;2.24;;
71174;SDS011;58876;51.994;4.472;2023-07-13T13:28:17;2248.62;;;2248.62;;
71174;SDS011;58876;51.994;4.472;2023-07-13T13:30:45;2261.33;;;2261.33;;
71174;SDS011;58876;51.994;4.472;2023-07-13T13:33:15;762.44;;;762.44;;
71174;SDS011;58876;51.994;4.472;2023-07-13T13:35:42;57.40;;;57.40;;
71174;SDS011;58876;51.994;4.472;2023-07-13T13:38:15;16.70;;;16.70;;
71174;SDS011;58876;51.994;4.472;2023-07-13T13:40:45;33.31;;;33.31;;
71174;SDS011;58876;51.994;4.472;2023-07-13T13:45:43;2.00;;;2.00;;
71174;SDS011;58876;51.994;4.472;2023-07-13T13:48:20;2.12;;;2.12;;
71174;SDS011;58876;51.994;4.472;2023-07-13T13:50:55;7.02;;;7.02;;
71174;SDS011;58876;51.994;4.472;2023-07-13T13:53:21;5.65;;;5.65;;
71174;SDS011;58876;51.994;4.472;2023-07-13T13:55:49;2.45;;;2.45;;
71174;SDS011;58876;51.994;4.472;2023-07-13T13:58:15;2.34;;;2.34;;
71174;SDS011;58876;51.994;4.472;2023-07-13T14:00:40;2.05;;;2.05;;
71174;SDS011;58876;51.994;4.472;2023-07-13T14:03:28;2.24;;;2.24;;
71174;SDS011;58876;51.994;4.472;2023-07-13T14:05:54;2.06;;;2.06;;
71174;SDS011;58876;51.994;4.472;2023-07-13T14:08:22;2.07;;;2.07;;
71174;SDS011;58876;51.994;4.472;2023-07-13T14:10:48;1.97;;;1.97;;
71174;SDS011;58876;51.994;4.472;2023-07-13T14:13:19;2.04;;;2.04;;
71174;SDS011;58876;51.994;4.472;2023-07-13T14:15:51;2.03;;;2.03;;
71174;SDS011;58876;51.994;4.472;2023-07-13T14:18:18;1.92;;;1.92;;
71174;SDS011;58876;51.994;4.472;2023-07-13T14:20:45;2.17;;;2.17;;
71174;SDS011;58876;51.994;4.472;2023-07-13T14:23:12;1.86;;;1.86;;
71174;SDS011;58876;51.994;4.472;2023-07-13T14:25:39;2.02;;;2.02;;
71174;SDS011;58876;51.994;4.472;2023-07-13T14:28:23;1.97;;;1.97;;
71174;SDS011;58876;51.994;4.472;2023-07-13T14:30:52;1.95;;;1.95;;
71174;SDS011;58876;51.994;4.472;2023-07-13T14:33:19;2.09;;;2.09;;
71174;SDS011;58876;51.994;4.472;2023-07-13T14:35:45;2.17;;;2.17;;
71174;SDS011;58876;51.994;4.472;2023-07-13T14:38:12;2.16;;;2.16;;
71174;SDS011;58876;51.994;4.472;2023-07-13T14:40:42;2.00;;;2.00;;
71174;SDS011;58876;51.994;4.472;2023-07-13T14:43:14;2.03;;;2.03;;
71174;SDS011;58876;51.994;4.472;2023-07-13T14:45:47;2.79;;;2.79;;
71174;SDS011;58876;51.994;4.472;2023-07-13T14:48:20;2.83;;;2.83;;
71174;SDS011;58876;51.994;4.472;2023-07-13T14:50:58;2.40;;;2.40;;
71174;SDS011;58876;51.994;4.472;2023-07-13T14:53:25;2.08;;;2.08;;
71174;SDS011;58876;51.994;4.472;2023-07-13T14:55:54;2.15;;;2.15;;
71174;SDS011;58876;51.994;4.472;2023-07-13T14:58:20;2.54;;;2.54;;
71174;SDS011;58876;51.994;4.472;2023-07-13T15:00:46;2.18;;;2.18;;
71174;SDS011;58876;51.994;4.472;2023-07-13T15:03:22;2.41;;;2.41;;
71174;SDS011;58876;51.994;4.472;2023-07-13T15:05:49;2.40;;;2.40;;
71174;SDS011;58876;51.994;4.472;2023-07-13T15:08:16;2.10;;;2.10;;
71174;SDS011;58876;51.994;4.472;2023-07-13T15:10:42;2.25;;;2.25;;
71174;SDS011;58876;51.994;4.472;2023-07-13T15:13:15;2.10;;;2.10;;
71174;SDS011;58876;51.994;4.472;2023-07-13T15:15:46;2.65;;;2.65;;
71174;SDS011;58876;51.994;4.472;2023-07-13T15:18:15;4.02;;;4.02;;
71174;SDS011;58876;51.994;4.472;2023-07-13T15:20:44;2.14;;;2.14;;
71174;SDS011;58876;51.994;4.472;2023-07-13T15:23:12;33.66;;;33.66;;
71174;SDS011;58876;51.994;4.472;2023-07-13T15:25:38;2.12;;;2.12;;
71174;SDS011;58876;51.994;4.472;2023-07-13T15:28:04;2.61;;;2.61;;
71174;SDS011;58876;51.994;4.472;2023-07-13T15:30:35;3.49;;;3.49;;
71174;SDS011;58876;51.994;4.472;2023-07-13T15:33:12;3.55;;;3.55;;
71174;SDS011;58876;51.994;4.472;2023-07-13T15:35:39;2.20;;;2.20;;
71174;SDS011;58876;51.994;4.472;2023-07-13T15:38:12;2.37;;;2.37;;
71174;SDS011;58876;51.994;4.472;2023-07-13T15:40:40;2.53;;;2.53;;
71174;SDS011;58876;51.994;4.472;2023-07-13T15:43:10;4.27;;;4.27;;
71174;SDS011;58876;51.994;4.472;2023-07-13T15:45:38;2.41;;;2.41;;
71174;SDS011;58876;51.994;4.472;2023-07-13T15:48:11;3.33;;;3.33;;
71174;SDS011;58876;51.994;4.472;2023-07-13T15:50:42;5.92;;;5.92;;
71174;SDS011;58876;51.994;4.472;2023-07-13T15:53:10;3.05;;;3.05;;
71174;SDS011;58876;51.994;4.472;2023-07-13T15:55:37;4.97;;;4.97;;
71174;SDS011;58876;51.994;4.472;2023-07-13T15:58:05;2.29;;;2.29;;